Mount Sterling, KY

10:21 PM EST on December 28, 2014 (GMT -0500)
Richmond | Change Station
CLOSE
Current Station
Airport
Location: Richmond,
Elevation: 1001 ft
Nearby Weather Stations

Elev 1001 ft 37.63 °N, 84.33 °W | Updated 6 minutes ago

Mostly Cloudy
Mostly Cloudy
34 °F
Feels Like 28 °F
N
7
Wind Variable Wind from NNE

Today
High -- | Low -- °F
--% Chance of Precip.
Yesterday
High -- | Low -- °F
Precip. -- in
7:51 AM 5:23 PM
First Quarter, 54% visible
Pressure 30.16 in
Visibility 0.2 miles
Clouds Overcast 200 ft
Windchill 28 °F
Dew Point 34 °F
Humidity 100%
Rainfall 0.00 in
Snow Depth Not available.
UV 0 out of 12
Pollen .10 out of 12
Air Quality Not available.
Flu Activity Not available.
METAR KI39 290315Z AUTO 02006KT 1/4SM OVC002 01/01 A3016 RMK AO2

More Conditions Fewer Conditions

Pressure 30.16 in
Visibility 0.2 miles
Clouds Overcast 200 ft
Windchill 28 °F
Dew Point 34 °F
Humidity 100%
Rainfall 0.00 in
Snow Depth Not available.
UV 0 out of 12
Pollen .10 out of 12
Air Quality Not available.
Flu Activity Not available.
METAR KI39 290315Z AUTO 02006KT 1/4SM OVC002 01/01 A3016 RMK AO2

More Conditions Fewer Conditions

10-Day Weather Forecast

Almanac

Astronomy

Dec. 28, 2014 Rise Set
Actual Time
Civil Twilight
Nautical Twilight
Astronomical Twilight
Moon
Length of Visible Light
Length of Day
Tomorrow will be .
, % of the Moon is Illuminated

Today's Extremes

State Highs State Lows

Community

WunderPhotos

Upload Photos

1,781,515 photos uploaded!

WunderBlogs® & News

Nearby

Air Quality

  Air Quality AQ Index Pollutant
Not available.

Snow Depth

Station Depth Elevation

Earthquake Activity

City Distance Mag. Time & Date
Minimum magnitude displayed is 2.5.

Coastal Water Temperatures

Place Temperature

Nearby Weather Stations